sensor_id;sensor_type;location;lat;lon;timestamp;pressure;altitude;pressure_sealevel;temperature;humidity
48077;BME280;33854;57.708;12.008;2022-12-13T00:01:21;97957.41;;;-6.33;100.00
48077;BME280;33854;57.708;12.008;2022-12-13T00:03:47;97954.84;;;-6.31;100.00
48077;BME280;33854;57.708;12.008;2022-12-13T00:06:12;97970.16;;;-6.34;100.00
48077;BME280;33854;57.708;12.008;2022-12-13T00:08:38;97969.38;;;-6.38;100.00
48077;BME280;33854;57.708;12.008;2022-12-13T00:11:04;97979.41;;;-6.33;100.00
48077;BME280;33854;57.708;12.008;2022-12-13T00:13:30;97981.16;;;-6.36;100.00
48077;BME280;33854;57.708;12.008;2022-12-13T00:15:56;97987.94;;;-6.36;100.00
48077;BME280;33854;57.708;12.008;2022-12-13T00:18:22;97996.44;;;-6.37;100.00
48077;BME280;33854;57.708;12.008;2022-12-13T00:20:47;97992.94;;;-6.33;100.00
48077;BME280;33854;57.708;12.008;2022-12-13T00:23:12;97992.94;;;-6.33;100.00
48077;BME280;33854;57.708;12.008;2022-12-13T00:25:38;98000.56;;;-6.33;100.00
48077;BME280;33854;57.708;12.008;2022-12-13T00:28:03;98003.94;;;-6.34;100.00
48077;BME280;33854;57.708;12.008;2022-12-13T00:30:28;98002.25;;;-6.33;100.00
48077;BME280;33854;57.708;12.008;2022-12-13T00:32:56;97999.63;;;-6.29;100.00
48077;BME280;33854;57.708;12.008;2022-12-13T00:35:22;97999.63;;;-6.29;100.00
48077;BME280;33854;57.708;12.008;2022-12-13T00:37:47;98002.13;;;-6.27;100.00
48077;BME280;33854;57.708;12.008;2022-12-13T00:40:12;97994.50;;;-6.26;100.00
48077;BME280;33854;57.708;12.008;2022-12-13T00:42:37;97999.34;;;-6.17;100.00
48077;BME280;33854;57.708;12.008;2022-12-13T00:45:03;98004.28;;;-6.11;100.00
48077;BME280;33854;57.708;12.008;2022-12-13T00:47:28;97994.03;;;-6.06;100.00
48077;BME280;33854;57.708;12.008;2022-12-13T00:49:53;98000.69;;;-6.02;100.00
48077;BME280;33854;57.708;12.008;2022-12-13T00:52:19;98006.50;;;-5.97;100.00
48077;BME280;33854;57.708;12.008;2022-12-13T00:54:44;98006.53;;;-5.99;100.00
48077;BME280;33854;57.708;12.008;2022-12-13T00:57:09;98010.69;;;-5.95;100.00
48077;BME280;33854;57.708;12.008;2022-12-13T00:59:35;98016.63;;;-5.96;100.00
48077;BME280;33854;57.708;12.008;2022-12-13T01:02:00;98017.34;;;-5.91;100.00
48077;BME280;33854;57.708;12.008;2022-12-13T01:04:25;98023.31;;;-5.93;100.00
48077;BME280;33854;57.708;12.008;2022-12-13T01:06:50;98026.69;;;-5.91;100.00
48077;BME280;33854;57.708;12.008;2022-12-13T01:09:17;98041.00;;;-5.89;100.00
48077;BME280;33854;57.708;12.008;2022-12-13T01:11:43;98045.28;;;-5.91;100.00
48077;BME280;33854;57.708;12.008;2022-12-13T01:14:09;98058.81;;;-5.90;100.00
48077;BME280;33854;57.708;12.008;2022-12-13T01:16:34;98062.88;;;-5.85;100.00
48077;BME280;33854;57.708;12.008;2022-12-13T01:18:59;98064.56;;;-5.84;100.00
48077;BME280;33854;57.708;12.008;2022-12-13T01:21:25;98081.56;;;-5.86;100.00
48077;BME280;33854;57.708;12.008;2022-12-13T01:23:50;98089.97;;;-5.84;100.00
48077;BME280;33854;57.708;12.008;2022-12-13T01:26:17;98105.31;;;-5.88;100.00
48077;BME280;33854;57.708;12.008;2022-12-13T01:28:42;98117.16;;;-5.87;100.00
48077;BME280;33854;57.708;12.008;2022-12-13T01:31:09;98121.38;;;-5.88;100.00
48077;BME280;33854;57.708;12.008;2022-12-13T01:33:35;98131.56;;;-5.88;100.00
48077;BME280;33854;57.708;12.008;2022-12-13T01:36:01;98134.91;;;-5.86;100.00
48077;BME280;33854;57.708;12.008;2022-12-13T01:38:27;98150.91;;;-5.84;100.00
48077;BME280;33854;57.708;12.008;2022-12-13T01:40:52;98156.00;;;-5.84;100.00
48077;BME280;33854;57.708;12.008;2022-12-13T01:46:01;98163.47;;;-5.78;100.00
48077;BME280;33854;57.708;12.008;2022-12-13T01:48:27;98170.25;;;-5.78;100.00
48077;BME280;33854;57.708;12.008;2022-12-13T01:50:55;98174.47;;;-5.77;100.00
48077;BME280;33854;57.708;12.008;2022-12-13T01:53:24;98177.03;;;-5.77;100.00
48077;BME280;33854;57.708;12.008;2022-12-13T01:55:52;98179.66;;;-5.82;100.00
48077;BME280;33854;57.708;12.008;2022-12-13T01:58:19;98183.06;;;-5.83;100.00
48077;BME280;33854;57.708;12.008;2022-12-13T02:00:44;98198.31;;;-5.83;100.00
48077;BME280;33854;57.708;12.008;2022-12-13T02:03:11;98202.66;;;-5.86;100.00
48077;BME280;33854;57.708;12.008;2022-12-13T02:06:11;98213.75;;;-5.92;100.00
48077;BME280;33854;57.708;12.008;2022-12-13T02:08:28;98217.28;;;-5.99;100.00
48077;BME280;33854;57.708;12.008;2022-12-13T02:10:54;98218.19;;;-6.01;100.00
48077;BME280;33854;57.708;12.008;2022-12-13T02:13:20;98233.41;;;-6.01;100.00
48077;BME280;33854;57.708;12.008;2022-12-13T02:21:06;98254.84;;;-6.16;100.00
48077;BME280;33854;57.708;12.008;2022-12-13T02:26:28;98260.94;;;-6.23;100.00
48077;BME280;33854;57.708;12.008;2022-12-13T02:31:31;98274.69;;;-6.34;100.00
48077;BME280;33854;57.708;12.008;2022-12-13T02:34:04;98288.28;;;-6.39;100.00
48077;BME280;33854;57.708;12.008;2022-12-13T02:36:43;98288.31;;;-6.40;100.00
48077;BME280;33854;57.708;12.008;2022-12-13T02:44:07;98303.69;;;-6.49;100.00
48077;BME280;33854;57.708;12.008;2022-12-13T02:46:35;98302.06;;;-6.53;100.00
48077;BME280;33854;57.708;12.008;2022-12-13T02:49:02;98299.59;;;-6.58;100.00
48077;BME280;33854;57.708;12.008;2022-12-13T02:51:29;98304.69;;;-6.58;100.00
48077;BME280;33854;57.708;12.008;2022-12-13T02:53:56;98308.91;;;-6.60;100.00
48077;BME280;33854;57.708;12.008;2022-12-13T02:56:21;98303.91;;;-6.63;100.00
48077;BME280;33854;57.708;12.008;2022-12-13T02:58:48;98306.47;;;-6.64;100.00
48077;BME280;33854;57.708;12.008;2022-12-13T03:04:05;98303.09;;;-6.65;100.00
48077;BME280;33854;57.708;12.008;2022-12-13T03:07:16;98307.31;;;-6.65;100.00
48077;BME280;33854;57.708;12.008;2022-12-13T03:15:17;98304.13;;;-6.75;100.00
48077;BME280;33854;57.708;12.008;2022-12-13T03:18:06;98308.38;;;-6.78;100.00
48077;BME280;33854;57.708;12.008;2022-12-13T03:20:30;98308.47;;;-6.83;100.00
48077;BME280;33854;57.708;12.008;2022-12-13T03:22:56;98309.31;;;-6.84;100.00
48077;BME280;33854;57.708;12.008;2022-12-13T03:25:23;98311.88;;;-6.85;100.00
48077;BME280;33854;57.708;12.008;2022-12-13T03:27:49;98309.41;;;-6.90;100.00
48077;BME280;33854;57.708;12.008;2022-12-13T03:30:15;98301.81;;;-6.92;100.00
48077;BME280;33854;57.708;12.008;2022-12-13T03:32:40;98297.56;;;-6.89;100.00
48077;BME280;33854;57.708;12.008;2022-12-13T03:35:06;98300.97;;;-6.89;100.00
48077;BME280;33854;57.708;12.008;2022-12-13T03:37:31;98297.59;;;-6.91;100.00
48077;BME280;33854;57.708;12.008;2022-12-13T03:39:57;98304.38;;;-6.93;100.00
48077;BME280;33854;57.708;12.008;2022-12-13T03:42:23;98295.97;;;-6.95;100.00
48077;BME280;33854;57.708;12.008;2022-12-13T03:44:48;98296.03;;;-6.98;100.00
48077;BME280;33854;57.708;12.008;2022-12-13T03:47:14;98299.47;;;-7.04;100.00
48077;BME280;33854;57.708;12.008;2022-12-13T03:49:39;98300.34;;;-7.05;100.00
48077;BME280;33854;57.708;12.008;2022-12-13T03:52:04;98296.97;;;-7.05;100.00
48077;BME280;33854;57.708;12.008;2022-12-13T03:54:30;98300.34;;;-7.05;100.00
48077;BME280;33854;57.708;12.008;2022-12-13T03:56:55;98297.00;;;-7.07;100.00
48077;BME280;33854;57.708;12.008;2022-12-13T03:59:20;98300.38;;;-7.08;100.00
48077;BME280;33854;57.708;12.008;2022-12-13T04:01:45;98300.38;;;-7.08;100.00
48077;BME280;33854;57.708;12.008;2022-12-13T04:04:11;98299.56;;;-7.10;100.00
48077;BME280;33854;57.708;12.008;2022-12-13T04:06:36;98306.38;;;-7.13;100.00
48077;BME280;33854;57.708;12.008;2022-12-13T04:09:02;98305.53;;;-7.14;100.00
48077;BME280;33854;57.708;12.008;2022-12-13T04:11:27;98309.00;;;-7.19;100.00
48077;BME280;33854;57.708;12.008;2022-12-13T04:14:11;98315.03;;;-7.26;100.00
48077;BME280;33854;57.708;12.008;2022-12-13T04:16:37;98318.41;;;-7.27;100.00
48077;BME280;33854;57.708;12.008;2022-12-13T04:19:02;98320.13;;;-7.31;100.00
48077;BME280;33854;57.708;12.008;2022-12-13T04:21:27;98320.16;;;-7.32;100.00
48077;BME280;33854;57.708;12.008;2022-12-13T04:23:53;98317.63;;;-7.32;100.00
48077;BME280;33854;57.708;12.008;2022-12-13T04:26:18;98314.28;;;-7.36;100.00
48077;BME280;33854;57.708;12.008;2022-12-13T04:28:44;98310.97;;;-7.39;100.00
48077;BME280;33854;57.708;12.008;2022-12-13T04:31:09;98320.31;;;-7.44;100.00
48077;BME280;33854;57.708;12.008;2022-12-13T04:33:34;98314.47;;;-7.51;100.00
48077;BME280;33854;57.708;12.008;2022-12-13T04:36:00;98317.91;;;-7.52;100.00
48077;BME280;33854;57.708;12.008;2022-12-13T04:38:25;98312.88;;;-7.55;100.00
48077;BME280;33854;57.708;12.008;2022-12-13T04:40:50;98311.22;;;-7.58;100.00
48077;BME280;33854;57.708;12.008;2022-12-13T04:43:16;98312.06;;;-7.60;100.00
48077;BME280;33854;57.708;12.008;2022-12-13T04:45:41;98307.06;;;-7.65;100.00
48077;BME280;33854;57.708;12.008;2022-12-13T04:48:06;98307.94;;;-7.67;100.00
48077;BME280;33854;57.708;12.008;2022-12-13T04:50:32;98303.78;;;-7.73;100.00
48077;BME280;33854;57.708;12.008;2022-12-13T04:52:57;98309.81;;;-7.81;100.00
48077;BME280;33854;57.708;12.008;2022-12-13T04:55:22;98316.59;;;-7.85;100.00
48077;BME280;33854;57.708;12.008;2022-12-13T04:57:48;98326.78;;;-7.91;100.00
48077;BME280;33854;57.708;12.008;2022-12-13T05:00:13;98320.09;;;-7.96;100.00
48077;BME280;33854;57.708;12.008;2022-12-13T05:02:39;98320.97;;;-8.00;100.00
48077;BME280;33854;57.708;12.008;2022-12-13T05:05:10;98317.66;;;-8.04;100.00
48077;BME280;33854;57.708;12.008;2022-12-13T05:07:36;98318.53;;;-8.06;100.00
48077;BME280;33854;57.708;12.008;2022-12-13T05:10:01;98316.84;;;-8.09;100.00
48077;BME280;33854;57.708;12.008;2022-12-13T05:12:27;98317.72;;;-8.12;100.00
48077;BME280;33854;57.708;12.008;2022-12-13T05:14:52;98310.97;;;-8.10;100.00
48077;BME280;33854;57.708;12.008;2022-12-13T05:17:17;98303.38;;;-8.10;100.00
48077;BME280;33854;57.708;12.008;2022-12-13T05:19:43;98305.91;;;-8.11;100.00
48077;BME280;33854;57.708;12.008;2022-12-13T05:22:08;98300.00;;;-8.10;100.00
48077;BME280;33854;57.708;12.008;2022-12-13T05:24:40;98289.84;;;-8.09;100.00
48077;BME280;33854;57.708;12.008;2022-12-13T05:27:05;98285.63;;;-8.08;100.00
48077;BME280;33854;57.708;12.008;2022-12-13T05:29:30;98294.94;;;-8.12;100.00
48077;BME280;33854;57.708;12.008;2022-12-13T05:31:55;98292.44;;;-8.15;100.00
48077;BME280;33854;57.708;12.008;2022-12-13T05:34:21;98287.41;;;-8.16;100.00
48077;BME280;33854;57.708;12.008;2022-12-13T05:36:46;98287.44;;;-8.19;100.00
48077;BME280;33854;57.708;12.008;2022-12-13T05:39:12;98281.53;;;-8.18;100.00
48077;BME280;33854;57.708;12.008;2022-12-13T05:41:37;98276.50;;;-8.23;100.00
48077;BME280;33854;57.708;12.008;2022-12-13T05:44:02;98281.56;;;-8.23;100.00
48077;BME280;33854;57.708;12.008;2022-12-13T05:46:28;98274.00;;;-8.26;100.00
48077;BME280;33854;57.708;12.008;2022-12-13T05:48:53;98281.59;;;-8.24;100.00
48077;BME280;33854;57.708;12.008;2022-12-13T05:51:18;98287.59;;;-8.31;100.00
48077;BME280;33854;57.708;12.008;2022-12-13T05:53:43;98270.78;;;-8.35;100.00
48077;BME280;33854;57.708;12.008;2022-12-13T05:56:10;98277.59;;;-8.42;100.00
48077;BME280;33854;57.708;12.008;2022-12-13T05:58:36;98271.72;;;-8.45;100.00
48077;BME280;33854;57.708;12.008;2022-12-13T06:01:10;98275.94;;;-8.46;100.00
48077;BME280;33854;57.708;12.008;2022-12-13T06:03:36;98275.16;;;-8.51;100.00
48077;BME280;33854;57.708;12.008;2022-12-13T06:06:02;98274.31;;;-8.50;100.00
48077;BME280;33854;57.708;12.008;2022-12-13T06:08:28;98260.00;;;-8.54;100.00
48077;BME280;33854;57.708;12.008;2022-12-13T06:10:54;98255.75;;;-8.50;100.00
48077;BME280;33854;57.708;12.008;2022-12-13T06:13:20;98245.63;;;-8.52;100.00
48077;BME280;33854;57.708;12.008;2022-12-13T06:15:45;98240.63;;;-8.53;100.00
48077;BME280;33854;57.708;12.008;2022-12-13T06:18:10;98244.84;;;-8.57;100.00
48077;BME280;33854;57.708;12.008;2022-12-13T06:20:36;98234.75;;;-8.57;100.00
48077;BME280;33854;57.708;12.008;2022-12-13T06:23:01;98232.28;;;-8.63;100.00
48077;BME280;33854;57.708;12.008;2022-12-13T06:25:26;98243.25;;;-8.64;100.00
48077;BME280;33854;57.708;12.008;2022-12-13T06:27:52;98234.03;;;-8.71;100.00
48077;BME280;33854;57.708;12.008;2022-12-13T06:30:17;98241.56;;;-8.67;100.00
48077;BME280;33854;57.708;12.008;2022-12-13T06:32:42;98247.44;;;-8.63;100.00
48077;BME280;33854;57.708;12.008;2022-12-13T06:35:11;98243.34;;;-8.73;100.00
48077;BME280;33854;57.708;12.008;2022-12-13T06:37:37;98244.25;;;-8.82;100.00
48077;BME280;33854;57.708;12.008;2022-12-13T06:40:02;98241.69;;;-8.80;100.00
48077;BME280;33854;57.708;12.008;2022-12-13T06:42:28;98238.31;;;-8.78;100.00
48077;BME280;33854;57.708;12.008;2022-12-13T06:44:53;98237.47;;;-8.80;100.00
48077;BME280;33854;57.708;12.008;2022-12-13T06:47:18;98245.94;;;-8.82;100.00
48077;BME280;33854;57.708;12.008;2022-12-13T06:49:44;98235.03;;;-8.89;100.00
48077;BME280;33854;57.708;12.008;2022-12-13T06:52:10;98238.47;;;-8.93;100.00
48077;BME280;33854;57.708;12.008;2022-12-13T06:54:36;98241.84;;;-8.97;100.00
48077;BME280;33854;57.708;12.008;2022-12-13T06:57:02;98240.16;;;-8.98;100.00
48077;BME280;33854;57.708;12.008;2022-12-13T06:59:27;98236.81;;;-8.95;100.00
48077;BME280;33854;57.708;12.008;2022-12-13T07:01:52;98236.75;;;-8.92;100.00
48077;BME280;33854;57.708;12.008;2022-12-13T07:04:18;98229.22;;;-8.95;100.00
48077;BME280;33854;57.708;12.008;2022-12-13T07:06:43;98234.28;;;-8.95;100.00
48077;BME280;33854;57.708;12.008;2022-12-13T07:09:08;98231.69;;;-8.92;100.00
48077;BME280;33854;57.708;12.008;2022-12-13T07:11:34;98219.91;;;-8.90;100.00
48077;BME280;33854;57.708;12.008;2022-12-13T07:13:59;98229.97;;;-8.89;100.00
48077;BME280;33854;57.708;12.008;2022-12-13T07:16:24;98224.94;;;-8.90;100.00
48077;BME280;33854;57.708;12.008;2022-12-13T07:18:53;98224.94;;;-8.92;100.00
48077;BME280;33854;57.708;12.008;2022-12-13T07:21:19;98223.31;;;-8.97;100.00
48077;BME280;33854;57.708;12.008;2022-12-13T07:23:44;98227.56;;;-8.99;100.00
48077;BME280;33854;57.708;12.008;2022-12-13T07:26:09;98226.75;;;-9.04;100.00
48077;BME280;33854;57.708;12.008;2022-12-13T07:28:35;98231.81;;;-9.06;100.00
48077;BME280;33854;57.708;12.008;2022-12-13T07:31:02;98228.41;;;-9.03;100.00
48077;BME280;33854;57.708;12.008;2022-12-13T07:33:28;98226.72;;;-8.98;100.00
48077;BME280;33854;57.708;12.008;2022-12-13T07:36:04;98233.47;;;-9.03;100.00
48077;BME280;33854;57.708;12.008;2022-12-13T07:38:31;98230.19;;;-9.14;100.00
48077;BME280;33854;57.708;12.008;2022-12-13T07:40:57;98235.28;;;-9.16;100.00
48077;BME280;33854;57.708;12.008;2022-12-13T07:43:22;98245.38;;;-9.17;100.00
48077;BME280;33854;57.708;12.008;2022-12-13T07:45:48;98243.72;;;-9.23;100.00
48077;BME280;33854;57.708;12.008;2022-12-13T07:48:13;98263.13;;;-9.27;100.00
48077;BME280;33854;57.708;12.008;2022-12-13T07:50:39;98258.16;;;-9.39;100.00
48077;BME280;33854;57.708;12.008;2022-12-13T07:53:05;98272.44;;;-9.38;100.00
48077;BME280;33854;57.708;12.008;2022-12-13T07:55:30;98264.84;;;-9.32;100.00
48077;BME280;33854;57.708;12.008;2022-12-13T07:58:06;98268.19;;;-9.28;100.00
48077;BME280;33854;57.708;12.008;2022-12-13T08:00:32;98263.13;;;-9.27;100.00
48077;BME280;33854;57.708;12.008;2022-12-13T08:02:58;98259.72;;;-9.21;100.00
48077;BME280;33854;57.708;12.008;2022-12-13T08:05:24;98261.41;;;-9.21;100.00
48077;BME280;33854;57.708;12.008;2022-12-13T08:07:49;98262.22;;;-9.21;100.00
48077;BME280;33854;57.708;12.008;2022-12-13T08:10:14;98258.03;;;-9.20;100.00
48077;BME280;33854;57.708;12.008;2022-12-13T08:12:40;98251.28;;;-9.20;100.00
48077;BME280;33854;57.708;12.008;2022-12-13T08:15:05;98266.44;;;-9.15;100.00
48077;BME280;33854;57.708;12.008;2022-12-13T08:17:30;98266.47;;;-9.21;100.00
48077;BME280;33854;57.708;12.008;2022-12-13T08:19:56;98265.63;;;-9.27;100.00
48077;BME280;33854;57.708;12.008;2022-12-13T08:22:21;98265.72;;;-9.33;100.00
48077;BME280;33854;57.708;12.008;2022-12-13T08:24:46;98269.84;;;-9.22;100.00
48077;BME280;33854;57.708;12.008;2022-12-13T08:27:11;98265.56;;;-9.14;100.00
48077;BME280;33854;57.708;12.008;2022-12-13T08:29:37;98262.16;;;-9.12;100.00
48077;BME280;33854;57.708;12.008;2022-12-13T08:32:03;98273.97;;;-9.12;100.00
48077;BME280;33854;57.708;12.008;2022-12-13T08:34:29;98267.22;;;-9.10;100.00
48077;BME280;33854;57.708;12.008;2022-12-13T08:36:55;98262.16;;;-9.09;100.00
48077;BME280;33854;57.708;12.008;2022-12-13T08:39:21;98250.28;;;-9.01;100.00
48077;BME280;33854;57.708;12.008;2022-12-13T08:41:46;98247.78;;;-8.99;100.00
48077;BME280;33854;57.708;12.008;2022-12-13T08:44:11;98246.06;;;-8.97;100.00
48077;BME280;33854;57.708;12.008;2022-12-13T08:46:37;98252.78;;;-8.95;100.00
48077;BME280;33854;57.708;12.008;2022-12-13T08:49:02;98241.88;;;-8.98;100.00
48077;BME280;33854;57.708;12.008;2022-12-13T08:51:27;98251.13;;;-8.96;100.00
48077;BME280;33854;57.708;12.008;2022-12-13T08:53:52;98250.19;;;-8.87;100.00
48077;BME280;33854;57.708;12.008;2022-12-13T08:56:18;98249.34;;;-8.89;100.00
48077;BME280;33854;57.708;12.008;2022-12-13T08:58:47;98244.28;;;-8.85;100.00
48077;BME280;33854;57.708;12.008;2022-12-13T09:01:13;98248.44;;;-8.79;100.00
48077;BME280;33854;57.708;12.008;2022-12-13T09:03:38;98255.22;;;-8.81;100.00
48077;BME280;33854;57.708;12.008;2022-12-13T09:06:07;98268.66;;;-8.81;100.00
48077;BME280;33854;57.708;12.008;2022-12-13T09:08:33;98274.59;;;-8.86;100.00
48077;BME280;33854;57.708;12.008;2022-12-13T09:10:58;98276.28;;;-8.82;100.00
48077;BME280;33854;57.708;12.008;2022-12-13T09:13:24;98282.13;;;-8.80;100.00
48077;BME280;33854;57.708;12.008;2022-12-13T09:15:50;98292.22;;;-8.74;100.00
48077;BME280;33854;57.708;12.008;2022-12-13T09:18:15;98293.84;;;-8.67;100.00
48077;BME280;33854;57.708;12.008;2022-12-13T09:20:40;98296.34;;;-8.64;100.00
48077;BME280;33854;57.708;12.008;2022-12-13T09:23:06;98299.63;;;-8.57;100.00
48077;BME280;33854;57.708;12.008;2022-12-13T09:25:31;98312.31;;;-8.59;100.00
48077;BME280;33854;57.708;12.008;2022-12-13T09:27:57;98309.00;;;-8.64;100.00
48077;BME280;33854;57.708;12.008;2022-12-13T09:30:22;98307.28;;;-8.63;100.00
48077;BME280;33854;57.708;12.008;2022-12-13T09:32:48;98315.75;;;-8.69;100.00
48077;BME280;33854;57.708;12.008;2022-12-13T09:35:13;98324.28;;;-8.79;100.00
48077;BME280;33854;57.708;12.008;2022-12-13T09:37:39;98340.22;;;-8.74;100.00
48077;BME280;33854;57.708;12.008;2022-12-13T09:40:04;98325.88;;;-8.72;100.00
48077;BME280;33854;57.708;12.008;2022-12-13T09:42:30;98326.72;;;-8.69;100.00
48077;BME280;33854;57.708;12.008;2022-12-13T09:44:59;98318.22;;;-8.60;100.00
48077;BME280;33854;57.708;12.008;2022-12-13T09:49:50;98319.03;;;-8.56;100.00
48077;BME280;33854;57.708;12.008;2022-12-13T09:52:15;98325.75;;;-8.54;100.00
48077;BME280;33854;57.708;12.008;2022-12-13T09:54:44;98318.97;;;-8.52;100.00
48077;BME280;33854;57.708;12.008;2022-12-13T09:57:14;98325.69;;;-8.48;100.00
48077;BME280;33854;57.708;12.008;2022-12-13T09:59:40;98319.75;;;-8.42;100.00
48077;BME280;33854;57.708;12.008;2022-12-13T10:02:13;98303.66;;;-8.35;100.00
48077;BME280;33854;57.708;12.008;2022-12-13T10:04:38;98312.84;;;-8.28;100.00
48077;BME280;33854;57.708;12.008;2022-12-13T10:07:06;98307.81;;;-8.28;100.00
48077;BME280;33854;57.708;12.008;2022-12-13T10:09:37;98306.03;;;-8.22;100.00
48077;BME280;33854;57.708;12.008;2022-12-13T10:12:02;98311.06;;;-8.19;100.00
48077;BME280;33854;57.708;12.008;2022-12-13T10:14:29;98316.13;;;-8.19;100.00
48077;BME280;33854;57.708;12.008;2022-12-13T10:16:58;98316.06;;;-8.14;100.00
48077;BME280;33854;57.708;12.008;2022-12-13T10:19:28;98326.22;;;-8.16;100.00
48077;BME280;33854;57.708;12.008;2022-12-13T10:21:57;98326.97;;;-8.07;100.00
48077;BME280;33854;57.708;12.008;2022-12-13T10:24:25;98320.97;;;-8.00;100.00
48077;BME280;33854;57.708;12.008;2022-12-13T10:26:57;98326.09;;;-8.03;100.00
48077;BME280;33854;57.708;12.008;2022-12-13T10:29:24;98331.13;;;-8.02;100.00
48077;BME280;33854;57.708;12.008;2022-12-13T10:31:50;98334.44;;;-7.97;100.00
48077;BME280;33854;57.708;12.008;2022-12-13T10:36:47;98331.84;;;-7.91;100.00
48077;BME280;33854;57.708;12.008;2022-12-13T10:39:17;98329.22;;;-7.82;100.00
48077;BME280;33854;57.708;12.008;2022-12-13T10:41:43;98334.19;;;-7.74;100.00
48077;BME280;33854;57.708;12.008;2022-12-13T10:46:40;98354.34;;;-7.65;100.00
48077;BME280;33854;57.708;12.008;2022-12-13T10:49:17;98350.94;;;-7.63;100.00
48077;BME280;33854;57.708;12.008;2022-12-13T10:51:43;98368.72;;;-7.69;100.00
48077;BME280;33854;57.708;12.008;2022-12-13T10:54:16;98372.16;;;-7.74;100.00
48077;BME280;33854;57.708;12.008;2022-12-13T10:56:44;98388.06;;;-7.62;100.00
48077;BME280;33854;57.708;12.008;2022-12-13T10:59:22;98394.84;;;-7.65;100.00
48077;BME280;33854;57.708;12.008;2022-12-13T11:01:48;98398.97;;;-7.55;100.00
48077;BME280;33854;57.708;12.008;2022-12-13T11:04:34;98405.59;;;-7.43;100.00
48077;BME280;33854;57.708;12.008;2022-12-13T11:07:01;98418.97;;;-7.34;100.00
48077;BME280;33854;57.708;12.008;2022-12-13T11:09:30;98424.75;;;-7.23;100.00
48077;BME280;33854;57.708;12.008;2022-12-13T11:12:00;98429.72;;;-7.14;100.00
48077;BME280;33854;57.708;12.008;2022-12-13T11:14:27;98437.28;;;-7.11;100.00
48077;BME280;33854;57.708;12.008;2022-12-13T11:16:54;98452.38;;;-7.00;100.00
48077;BME280;33854;57.708;12.008;2022-12-13T11:22:02;98460.63;;;-6.84;100.00
48077;BME280;33854;57.708;12.008;2022-12-13T11:24:29;98471.63;;;-6.84;100.00
48077;BME280;33854;57.708;12.008;2022-12-13T11:26:58;98487.63;;;-6.80;100.00
48077;BME280;33854;57.708;12.008;2022-12-13T11:31:56;98520.53;;;-6.74;100.00
48077;BME280;33854;57.708;12.008;2022-12-13T11:34:34;98542.47;;;-6.72;100.00
48077;BME280;33854;57.708;12.008;2022-12-13T11:39:36;98592.31;;;-6.66;100.00
48077;BME280;33854;57.708;12.008;2022-12-13T11:47:01;98635.44;;;-6.68;100.00
48077;BME280;33854;57.708;12.008;2022-12-13T11:49:38;98661.66;;;-6.69;100.00
48077;BME280;33854;57.708;12.008;2022-12-13T11:52:51;98660.69;;;-6.57;100.00
48077;BME280;33854;57.708;12.008;2022-12-13T11:57:23;98622.78;;;-5.47;100.00
48077;BME280;33854;57.708;12.008;2022-12-13T11:59:54;98643.28;;;-4.58;100.00
48077;BME280;33854;57.708;12.008;2022-12-13T12:02:34;98711.44;;;-3.84;100.00
48077;BME280;33854;57.708;12.008;2022-12-13T12:05:13;98833.88;;;-3.06;100.00
48077;BME280;33854;57.708;12.008;2022-12-13T12:07:45;98999.84;;;-2.27;100.00
48077;BME280;33854;57.708;12.008;2022-12-13T12:12:37;99285.19;;;-0.64;100.00
48077;BME280;33854;57.708;12.008;2022-12-13T12:15:06;99430.56;;;0.02;100.00
48077;BME280;33854;57.708;12.008;2022-12-13T12:17:35;99559.09;;;0.26;100.00
48077;BME280;33854;57.708;12.008;2022-12-13T12:20:00;99686.56;;;0.24;100.00
48077;BME280;33854;57.708;12.008;2022-12-13T12:34:55;99957.69;;;1.95;100.00
48077;BME280;33854;57.708;12.008;2022-12-13T12:37:38;99974.25;;;2.20;100.00
48077;BME280;33854;57.708;12.008;2022-12-13T12:42:39;99996.41;;;2.61;100.00
48077;BME280;33854;57.708;12.008;2022-12-13T12:45:32;100011.41;;;2.46;100.00
48077;BME280;33854;57.708;12.008;2022-12-13T12:55:50;99998.66;;;2.04;100.00
48077;BME280;33854;57.708;12.008;2022-12-13T13:05:41;100003.16;;;2.32;100.00
48077;BME280;33854;57.708;12.008;2022-12-13T13:08:26;99987.06;;;2.57;100.00
48077;BME280;33854;57.708;12.008;2022-12-13T13:10:52;100011.28;;;2.50;100.00
48077;BME280;33854;57.708;12.008;2022-12-13T13:15:56;100096.28;;;1.72;100.00
48077;BME280;33854;57.708;12.008;2022-12-13T13:26:35;100108.03;;;-4.41;100.00
48077;BME280;33854;57.708;12.008;2022-12-13T13:34:33;100024.38;;;-5.38;100.00
48077;BME280;33854;57.708;12.008;2022-12-13T13:36:59;99997.16;;;-5.51;100.00
48077;BME280;33854;57.708;12.008;2022-12-13T13:42:07;99930.03;;;-5.86;100.00
48077;BME280;33854;57.708;12.008;2022-12-13T13:52:18;99443.94;;;-6.29;100.00
48077;BME280;33854;57.708;12.008;2022-12-13T13:57:25;99312.75;;;-6.39;100.00
48077;BME280;33854;57.708;12.008;2022-12-13T14:10:57;99076.84;;;-6.77;100.00
48077;BME280;33854;57.708;12.008;2022-12-13T14:29:22;98778.81;;;-7.34;100.00
48077;BME280;33854;57.708;12.008;2022-12-13T14:31:48;98757.69;;;-7.36;100.00
48077;BME280;33854;57.708;12.008;2022-12-13T14:34:16;98721.44;;;-7.44;100.00
48077;BME280;33854;57.708;12.008;2022-12-13T14:36:43;98693.56;;;-7.45;100.00
48077;BME280;33854;57.708;12.008;2022-12-13T14:39:14;98653.06;;;-7.52;100.00
48077;BME280;33854;57.708;12.008;2022-12-13T14:41:49;98592.34;;;-7.58;100.00
48077;BME280;33854;57.708;12.008;2022-12-13T14:44:24;98556.06;;;-7.63;100.00
48077;BME280;33854;57.708;12.008;2022-12-13T14:46:57;98519.00;;;-7.70;100.00
48077;BME280;33854;57.708;12.008;2022-12-13T14:49:24;98492.94;;;-7.81;100.00
48077;BME280;33854;57.708;12.008;2022-12-13T14:51:58;98506.41;;;-7.80;100.00
48077;BME280;33854;57.708;12.008;2022-12-13T14:54:28;98451.59;;;-7.81;100.00
48077;BME280;33854;57.708;12.008;2022-12-13T14:56:56;98422.03;;;-7.81;100.00
48077;BME280;33854;57.708;12.008;2022-12-13T14:59:22;98391.72;;;-7.87;100.00